sensor_id;sensor_type;location;lat;lon;timestamp;P1;durP1;ratioP1;P2;durP2;ratioP2
35084;SDS011;21267;51.032;6.998;2023-08-12T00:01:38;39.05;;;30.77;;
35084;SDS011;21267;51.032;6.998;2023-08-12T00:04:05;37.60;;;29.85;;
35084;SDS011;21267;51.032;6.998;2023-08-12T00:06:32;35.97;;;29.90;;
35084;SDS011;21267;51.032;6.998;2023-08-12T00:09:00;36.95;;;28.60;;
35084;SDS011;21267;51.032;6.998;2023-08-12T00:11:28;32.40;;;27.08;;
35084;SDS011;21267;51.032;6.998;2023-08-12T00:13:55;31.70;;;27.23;;
35084;SDS011;21267;51.032;6.998;2023-08-12T00:16:22;30.27;;;25.40;;
35084;SDS011;21267;51.032;6.998;2023-08-12T00:18:50;30.80;;;26.10;;
35084;SDS011;21267;51.032;6.998;2023-08-12T00:21:16;32.33;;;25.53;;
35084;SDS011;21267;51.032;6.998;2023-08-12T00:23:43;38.35;;;28.27;;
35084;SDS011;21267;51.032;6.998;2023-08-12T00:26:11;33.35;;;27.13;;
35084;SDS011;21267;51.032;6.998;2023-08-12T00:28:38;35.07;;;27.67;;
35084;SDS011;21267;51.032;6.998;2023-08-12T00:31:07;31.38;;;24.77;;
35084;SDS011;21267;51.032;6.998;2023-08-12T00:33:35;29.42;;;25.30;;
35084;SDS011;21267;51.032;6.998;2023-08-12T00:36:03;32.55;;;23.70;;
35084;SDS011;21267;51.032;6.998;2023-08-12T00:38:30;29.92;;;23.73;;
35084;SDS011;21267;51.032;6.998;2023-08-12T00:41:04;26.20;;;23.20;;
35084;SDS011;21267;51.032;6.998;2023-08-12T00:43:31;34.08;;;25.65;;
35084;SDS011;21267;51.032;6.998;2023-08-12T00:46:01;32.95;;;26.98;;
35084;SDS011;21267;51.032;6.998;2023-08-12T00:48:28;32.00;;;25.90;;
35084;SDS011;21267;51.032;6.998;2023-08-12T00:50:55;35.10;;;27.55;;
35084;SDS011;21267;51.032;6.998;2023-08-12T00:53:25;35.30;;;27.02;;
35084;SDS011;21267;51.032;6.998;2023-08-12T00:55:52;31.10;;;26.83;;
35084;SDS011;21267;51.032;6.998;2023-08-12T00:58:19;32.53;;;25.33;;
35084;SDS011;21267;51.032;6.998;2023-08-12T01:03:18;32.83;;;25.58;;
35084;SDS011;21267;51.032;6.998;2023-08-12T01:05:46;27.92;;;24.95;;
35084;SDS011;21267;51.032;6.998;2023-08-12T01:08:15;28.33;;;24.48;;
35084;SDS011;21267;51.032;6.998;2023-08-12T01:10:52;29.92;;;25.73;;
35084;SDS011;21267;51.032;6.998;2023-08-12T01:16:13;36.92;;;28.80;;
35084;SDS011;21267;51.032;6.998;2023-08-12T01:18:46;42.08;;;31.05;;
35084;SDS011;21267;51.032;6.998;2023-08-12T01:21:16;35.63;;;31.55;;
35084;SDS011;21267;51.032;6.998;2023-08-12T01:23:45;40.40;;;34.17;;
35084;SDS011;21267;51.032;6.998;2023-08-12T01:26:16;43.05;;;32.03;;
35084;SDS011;21267;51.032;6.998;2023-08-12T01:28:44;39.45;;;33.72;;
35084;SDS011;21267;51.032;6.998;2023-08-12T01:33:55;37.90;;;30.75;;
35084;SDS011;21267;51.032;6.998;2023-08-12T01:36:46;38.30;;;31.10;;
35084;SDS011;21267;51.032;6.998;2023-08-12T01:39:17;37.65;;;29.90;;
35084;SDS011;21267;51.032;6.998;2023-08-12T01:41:45;33.35;;;28.05;;
35084;SDS011;21267;51.032;6.998;2023-08-12T01:44:14;29.83;;;25.00;;
35084;SDS011;21267;51.032;6.998;2023-08-12T01:46:45;28.15;;;24.33;;
35084;SDS011;21267;51.032;6.998;2023-08-12T01:49:12;27.53;;;22.60;;
35084;SDS011;21267;51.032;6.998;2023-08-12T01:51:42;26.67;;;23.80;;
35084;SDS011;21267;51.032;6.998;2023-08-12T01:54:09;25.42;;;22.38;;
35084;SDS011;21267;51.032;6.998;2023-08-12T01:56:36;26.40;;;23.65;;
35084;SDS011;21267;51.032;6.998;2023-08-12T01:59:03;26.60;;;23.50;;
35084;SDS011;21267;51.032;6.998;2023-08-12T02:01:30;29.70;;;22.85;;
35084;SDS011;21267;51.032;6.998;2023-08-12T02:03:58;25.45;;;21.85;;
35084;SDS011;21267;51.032;6.998;2023-08-12T02:06:32;24.00;;;21.40;;
35084;SDS011;21267;51.032;6.998;2023-08-12T02:09:04;26.05;;;21.48;;
35084;SDS011;21267;51.032;6.998;2023-08-12T02:11:34;27.48;;;22.52;;
35084;SDS011;21267;51.032;6.998;2023-08-12T02:14:01;23.15;;;20.75;;
35084;SDS011;21267;51.032;6.998;2023-08-12T02:16:31;23.27;;;20.88;;
35084;SDS011;21267;51.032;6.998;2023-08-12T02:19:00;26.80;;;20.83;;
35084;SDS011;21267;51.032;6.998;2023-08-12T02:21:27;24.90;;;19.77;;
35084;SDS011;21267;51.032;6.998;2023-08-12T02:23:54;25.05;;;19.30;;
35084;SDS011;21267;51.032;6.998;2023-08-12T02:26:21;24.23;;;18.80;;
35084;SDS011;21267;51.032;6.998;2023-08-12T02:28:52;22.55;;;19.10;;
35084;SDS011;21267;51.032;6.998;2023-08-12T02:31:21;21.33;;;19.08;;
35084;SDS011;21267;51.032;6.998;2023-08-12T02:33:49;19.88;;;17.85;;
35084;SDS011;21267;51.032;6.998;2023-08-12T02:36:16;22.50;;;19.07;;
35084;SDS011;21267;51.032;6.998;2023-08-12T02:38:48;21.60;;;19.10;;
35084;SDS011;21267;51.032;6.998;2023-08-12T02:41:18;21.45;;;18.17;;
35084;SDS011;21267;51.032;6.998;2023-08-12T02:43:52;21.15;;;17.80;;
35084;SDS011;21267;51.032;6.998;2023-08-12T02:46:19;20.02;;;18.02;;
35084;SDS011;21267;51.032;6.998;2023-08-12T02:48:47;20.08;;;18.15;;
35084;SDS011;21267;51.032;6.998;2023-08-12T02:51:14;21.83;;;18.38;;
35084;SDS011;21267;51.032;6.998;2023-08-12T02:53:41;23.57;;;19.10;;
35084;SDS011;21267;51.032;6.998;2023-08-12T02:56:09;25.73;;;22.27;;
35084;SDS011;21267;51.032;6.998;2023-08-12T02:58:38;26.65;;;23.40;;
35084;SDS011;21267;51.032;6.998;2023-08-12T03:01:05;25.52;;;22.85;;
35084;SDS011;21267;51.032;6.998;2023-08-12T03:03:33;28.55;;;23.00;;
35084;SDS011;21267;51.032;6.998;2023-08-12T03:06:00;25.60;;;22.90;;
35084;SDS011;21267;51.032;6.998;2023-08-12T03:08:27;28.38;;;22.77;;
35084;SDS011;21267;51.032;6.998;2023-08-12T03:11:03;24.52;;;21.88;;
35084;SDS011;21267;51.032;6.998;2023-08-12T03:13:30;25.65;;;21.30;;
35084;SDS011;21267;51.032;6.998;2023-08-12T03:15:57;28.67;;;23.40;;
35084;SDS011;21267;51.032;6.998;2023-08-12T03:18:24;29.07;;;22.27;;
35084;SDS011;21267;51.032;6.998;2023-08-12T03:20:52;31.40;;;22.97;;
35084;SDS011;21267;51.032;6.998;2023-08-12T03:23:21;31.67;;;22.02;;
35084;SDS011;21267;51.032;6.998;2023-08-12T03:25:49;23.70;;;21.10;;
35084;SDS011;21267;51.032;6.998;2023-08-12T03:28:25;24.50;;;21.90;;
35084;SDS011;21267;51.032;6.998;2023-08-12T03:30:53;25.17;;;20.08;;
35084;SDS011;21267;51.032;6.998;2023-08-12T03:33:22;23.55;;;21.10;;
35084;SDS011;21267;51.032;6.998;2023-08-12T03:35:50;24.90;;;20.60;;
35084;SDS011;21267;51.032;6.998;2023-08-12T03:38:18;24.75;;;20.80;;
35084;SDS011;21267;51.032;6.998;2023-08-12T03:40:48;26.33;;;21.02;;
35084;SDS011;21267;51.032;6.998;2023-08-12T03:43:16;22.98;;;20.05;;
35084;SDS011;21267;51.032;6.998;2023-08-12T03:48:11;25.63;;;20.77;;
35084;SDS011;21267;51.032;6.998;2023-08-12T03:50:38;25.10;;;20.27;;
35084;SDS011;21267;51.032;6.998;2023-08-12T03:53:05;23.67;;;21.05;;
35084;SDS011;21267;51.032;6.998;2023-08-12T03:55:33;24.42;;;20.20;;
35084;SDS011;21267;51.032;6.998;2023-08-12T03:58:00;26.92;;;19.13;;
35084;SDS011;21267;51.032;6.998;2023-08-12T04:00:27;21.45;;;18.65;;
35084;SDS011;21267;51.032;6.998;2023-08-12T04:02:54;19.92;;;17.50;;
35084;SDS011;21267;51.032;6.998;2023-08-12T04:05:23;20.15;;;18.00;;
35084;SDS011;21267;51.032;6.998;2023-08-12T04:07:50;19.73;;;16.67;;
35084;SDS011;21267;51.032;6.998;2023-08-12T04:10:16;20.53;;;17.33;;
35084;SDS011;21267;51.032;6.998;2023-08-12T04:12:43;18.02;;;15.98;;
35084;SDS011;21267;51.032;6.998;2023-08-12T04:15:10;19.13;;;17.10;;
35084;SDS011;21267;51.032;6.998;2023-08-12T04:17:37;17.88;;;15.85;;
35084;SDS011;21267;51.032;6.998;2023-08-12T04:20:08;18.67;;;16.83;;
35084;SDS011;21267;51.032;6.998;2023-08-12T04:22:35;19.05;;;17.05;;
35084;SDS011;21267;51.032;6.998;2023-08-12T04:25:04;19.65;;;17.42;;
35084;SDS011;21267;51.032;6.998;2023-08-12T04:27:31;23.70;;;18.10;;
35084;SDS011;21267;51.032;6.998;2023-08-12T04:29:58;21.80;;;18.10;;
35084;SDS011;21267;51.032;6.998;2023-08-12T04:32:24;21.37;;;18.93;;
35084;SDS011;21267;51.032;6.998;2023-08-12T04:34:54;21.38;;;19.23;;
35084;SDS011;21267;51.032;6.998;2023-08-12T04:37:20;21.73;;;19.43;;
35084;SDS011;21267;51.032;6.998;2023-08-12T04:39:47;20.45;;;18.23;;
35084;SDS011;21267;51.032;6.998;2023-08-12T04:42:14;21.00;;;18.70;;
35084;SDS011;21267;51.032;6.998;2023-08-12T04:44:41;23.97;;;18.90;;
35084;SDS011;21267;51.032;6.998;2023-08-12T04:47:07;20.92;;;18.08;;
35084;SDS011;21267;51.032;6.998;2023-08-12T04:49:36;22.95;;;17.92;;
35084;SDS011;21267;51.032;6.998;2023-08-12T04:52:04;19.75;;;17.75;;
35084;SDS011;21267;51.032;6.998;2023-08-12T04:54:33;19.63;;;16.50;;
35084;SDS011;21267;51.032;6.998;2023-08-12T04:57:02;18.60;;;16.70;;
35084;SDS011;21267;51.032;6.998;2023-08-12T04:59:32;17.75;;;16.00;;
35084;SDS011;21267;51.032;6.998;2023-08-12T05:01:58;22.73;;;15.77;;
35084;SDS011;21267;51.032;6.998;2023-08-12T05:04:30;17.67;;;15.93;;
35084;SDS011;21267;51.032;6.998;2023-08-12T05:07:00;15.82;;;14.23;;
35084;SDS011;21267;51.032;6.998;2023-08-12T05:09:27;15.13;;;13.65;;
35084;SDS011;21267;51.032;6.998;2023-08-12T05:11:54;16.45;;;14.07;;
35084;SDS011;21267;51.032;6.998;2023-08-12T05:14:21;14.90;;;13.50;;
35084;SDS011;21267;51.032;6.998;2023-08-12T05:16:47;14.63;;;13.30;;
35084;SDS011;21267;51.032;6.998;2023-08-12T05:19:14;13.75;;;12.27;;
35084;SDS011;21267;51.032;6.998;2023-08-12T05:21:41;13.07;;;11.73;;
35084;SDS011;21267;51.032;6.998;2023-08-12T05:24:08;13.10;;;11.80;;
35084;SDS011;21267;51.032;6.998;2023-08-12T05:26:38;15.40;;;11.80;;
35084;SDS011;21267;51.032;6.998;2023-08-12T05:29:04;13.90;;;11.30;;
35084;SDS011;21267;51.032;6.998;2023-08-12T05:31:31;12.53;;;11.23;;
35084;SDS011;21267;51.032;6.998;2023-08-12T05:34:01;13.02;;;11.25;;
35084;SDS011;21267;51.032;6.998;2023-08-12T05:36:28;11.40;;;10.23;;
35084;SDS011;21267;51.032;6.998;2023-08-12T05:38:55;12.35;;;9.93;;
35084;SDS011;21267;51.032;6.998;2023-08-12T05:41:21;10.63;;;9.53;;
35084;SDS011;21267;51.032;6.998;2023-08-12T05:43:48;10.77;;;9.67;;
35084;SDS011;21267;51.032;6.998;2023-08-12T05:46:15;13.47;;;9.90;;
35084;SDS011;21267;51.032;6.998;2023-08-12T05:48:42;10.75;;;9.57;;
35084;SDS011;21267;51.032;6.998;2023-08-12T05:51:09;13.53;;;10.60;;
35084;SDS011;21267;51.032;6.998;2023-08-12T05:53:37;11.48;;;10.32;;
35084;SDS011;21267;51.032;6.998;2023-08-12T05:56:05;11.27;;;9.60;;
35084;SDS011;21267;51.032;6.998;2023-08-12T05:58:31;11.73;;;10.57;;
35084;SDS011;21267;51.032;6.998;2023-08-12T06:00:58;11.83;;;10.60;;
35084;SDS011;21267;51.032;6.998;2023-08-12T06:03:25;10.90;;;9.83;;
35084;SDS011;21267;51.032;6.998;2023-08-12T06:05:52;12.73;;;11.43;;
35084;SDS011;21267;51.032;6.998;2023-08-12T06:08:19;13.77;;;11.73;;
35084;SDS011;21267;51.032;6.998;2023-08-12T06:13:13;12.43;;;11.00;;
35084;SDS011;21267;51.032;6.998;2023-08-12T06:15:40;15.10;;;12.93;;
35084;SDS011;21267;51.032;6.998;2023-08-12T06:18:06;46.37;;;41.33;;
35084;SDS011;21267;51.032;6.998;2023-08-12T06:20:33;21.23;;;18.50;;
35084;SDS011;21267;51.032;6.998;2023-08-12T06:23:00;16.02;;;14.45;;
35084;SDS011;21267;51.032;6.998;2023-08-12T06:25:29;18.92;;;15.48;;
35084;SDS011;21267;51.032;6.998;2023-08-12T06:27:56;24.67;;;22.08;;
35084;SDS011;21267;51.032;6.998;2023-08-12T06:33:36;17.00;;;15.38;;
35084;SDS011;21267;51.032;6.998;2023-08-12T06:36:03;18.83;;;15.80;;
35084;SDS011;21267;51.032;6.998;2023-08-12T06:38:30;18.10;;;16.30;;
35084;SDS011;21267;51.032;6.998;2023-08-12T06:40:57;19.87;;;16.57;;
35084;SDS011;21267;51.032;6.998;2023-08-12T06:43:24;21.10;;;16.33;;
35084;SDS011;21267;51.032;6.998;2023-08-12T06:45:55;16.20;;;14.50;;
35084;SDS011;21267;51.032;6.998;2023-08-12T06:48:22;20.38;;;15.07;;
35084;SDS011;21267;51.032;6.998;2023-08-12T06:50:55;19.13;;;15.33;;
35084;SDS011;21267;51.032;6.998;2023-08-12T06:53:22;19.40;;;16.10;;
35084;SDS011;21267;51.032;6.998;2023-08-12T06:55:51;18.30;;;16.40;;
35084;SDS011;21267;51.032;6.998;2023-08-12T06:58:18;17.57;;;14.40;;
35084;SDS011;21267;51.032;6.998;2023-08-12T07:00:45;15.70;;;14.15;;
35084;SDS011;21267;51.032;6.998;2023-08-12T07:03:12;14.90;;;12.83;;
35084;SDS011;21267;51.032;6.998;2023-08-12T07:05:38;14.50;;;13.10;;
35084;SDS011;21267;51.032;6.998;2023-08-12T07:08:05;14.17;;;12.67;;
35084;SDS011;21267;51.032;6.998;2023-08-12T07:10:32;12.40;;;11.10;;
35084;SDS011;21267;51.032;6.998;2023-08-12T07:12:59;12.85;;;10.52;;
35084;SDS011;21267;51.032;6.998;2023-08-12T07:15:26;42.40;;;36.97;;
35084;SDS011;21267;51.032;6.998;2023-08-12T07:17:53;12.03;;;8.13;;
35084;SDS011;21267;51.032;6.998;2023-08-12T07:20:19;9.97;;;7.87;;
35084;SDS011;21267;51.032;6.998;2023-08-12T07:22:46;8.33;;;7.50;;
35084;SDS011;21267;51.032;6.998;2023-08-12T07:25:13;11.80;;;8.05;;
35084;SDS011;21267;51.032;6.998;2023-08-12T07:27:40;11.07;;;7.78;;
35084;SDS011;21267;51.032;6.998;2023-08-12T07:30:07;8.63;;;7.63;;
35084;SDS011;21267;51.032;6.998;2023-08-12T07:32:36;16.42;;;14.73;;
35084;SDS011;21267;51.032;6.998;2023-08-12T07:35:04;41.55;;;36.85;;
35084;SDS011;21267;51.032;6.998;2023-08-12T07:37:32;8.43;;;7.00;;
35084;SDS011;21267;51.032;6.998;2023-08-12T07:39:59;7.25;;;6.65;;
35084;SDS011;21267;51.032;6.998;2023-08-12T07:42:26;8.35;;;7.55;;
35084;SDS011;21267;51.032;6.998;2023-08-12T07:44:53;9.73;;;7.07;;
35084;SDS011;21267;51.032;6.998;2023-08-12T07:47:19;7.83;;;7.00;;
35084;SDS011;21267;51.032;6.998;2023-08-12T07:49:46;7.10;;;6.43;;
35084;SDS011;21267;51.032;6.998;2023-08-12T07:52:13;7.53;;;6.67;;
35084;SDS011;21267;51.032;6.998;2023-08-12T07:54:40;10.13;;;6.33;;
35084;SDS011;21267;51.032;6.998;2023-08-12T07:57:09;8.40;;;6.87;;
35084;SDS011;21267;51.032;6.998;2023-08-12T07:59:36;7.20;;;6.60;;
35084;SDS011;21267;51.032;6.998;2023-08-12T08:02:03;9.77;;;8.77;;
35084;SDS011;21267;51.032;6.998;2023-08-12T08:04:30;9.00;;;5.93;;
35084;SDS011;21267;51.032;6.998;2023-08-12T08:06:57;15.63;;;13.90;;
35084;SDS011;21267;51.032;6.998;2023-08-12T08:09:24;23.98;;;21.50;;
35084;SDS011;21267;51.032;6.998;2023-08-12T08:11:54;9.48;;;8.02;;
35084;SDS011;21267;51.032;6.998;2023-08-12T08:14:22;9.10;;;6.28;;
35084;SDS011;21267;51.032;6.998;2023-08-12T08:16:49;6.03;;;5.47;;
35084;SDS011;21267;51.032;6.998;2023-08-12T08:19:16;5.77;;;4.63;;
35084;SDS011;21267;51.032;6.998;2023-08-12T08:21:44;6.53;;;5.10;;
35084;SDS011;21267;51.032;6.998;2023-08-12T08:24:11;5.35;;;4.80;;
35084;SDS011;21267;51.032;6.998;2023-08-12T08:29:07;29.50;;;23.27;;
35084;SDS011;21267;51.032;6.998;2023-08-12T08:31:33;23.87;;;18.50;;
35084;SDS011;21267;51.032;6.998;2023-08-12T08:34:00;12.07;;;10.80;;
35084;SDS011;21267;51.032;6.998;2023-08-12T08:36:27;4.00;;;3.60;;
35084;SDS011;21267;51.032;6.998;2023-08-12T08:38:54;5.28;;;3.63;;
35084;SDS011;21267;51.032;6.998;2023-08-12T08:41:21;5.63;;;3.30;;
35084;SDS011;21267;51.032;6.998;2023-08-12T08:43:48;3.83;;;3.42;;
35084;SDS011;21267;51.032;6.998;2023-08-12T08:46:16;3.88;;;3.58;;
35084;SDS011;21267;51.032;6.998;2023-08-12T08:48:44;7.00;;;4.45;;
35084;SDS011;21267;51.032;6.998;2023-08-12T08:51:11;7.18;;;4.55;;
35084;SDS011;21267;51.032;6.998;2023-08-12T08:53:39;7.20;;;4.60;;
35084;SDS011;21267;51.032;6.998;2023-08-12T08:56:07;5.72;;;4.22;;
35084;SDS011;21267;51.032;6.998;2023-08-12T08:58:41;5.72;;;3.70;;
35084;SDS011;21267;51.032;6.998;2023-08-12T09:01:08;4.95;;;4.32;;
35084;SDS011;21267;51.032;6.998;2023-08-12T09:03:36;4.72;;;4.15;;
35084;SDS011;21267;51.032;6.998;2023-08-12T09:06:04;5.97;;;4.38;;
35084;SDS011;21267;51.032;6.998;2023-08-12T09:08:31;5.80;;;4.10;;
35084;SDS011;21267;51.032;6.998;2023-08-12T09:10:59;6.05;;;3.15;;
35084;SDS011;21267;51.032;6.998;2023-08-12T09:13:28;5.90;;;4.20;;
35084;SDS011;21267;51.032;6.998;2023-08-12T09:18:22;4.53;;;3.60;;
35084;SDS011;21267;51.032;6.998;2023-08-12T09:20:52;5.10;;;2.67;;
35084;SDS011;21267;51.032;6.998;2023-08-12T09:23:20;5.80;;;3.40;;
35084;SDS011;21267;51.032;6.998;2023-08-12T09:25:47;2.60;;;2.40;;
35084;SDS011;21267;51.032;6.998;2023-08-12T09:28:14;4.03;;;3.08;;
35084;SDS011;21267;51.032;6.998;2023-08-12T09:30:42;4.88;;;3.70;;
35084;SDS011;21267;51.032;6.998;2023-08-12T09:33:08;4.50;;;3.47;;
35084;SDS011;21267;51.032;6.998;2023-08-12T09:35:37;3.38;;;2.70;;
35084;SDS011;21267;51.032;6.998;2023-08-12T09:38:06;4.00;;;2.40;;
35084;SDS011;21267;51.032;6.998;2023-08-12T09:40:42;4.28;;;2.70;;
35084;SDS011;21267;51.032;6.998;2023-08-12T09:43:10;7.80;;;5.20;;
35084;SDS011;21267;51.032;6.998;2023-08-12T09:45:39;4.53;;;2.30;;
35084;SDS011;21267;51.032;6.998;2023-08-12T09:48:06;3.95;;;2.25;;
35084;SDS011;21267;51.032;6.998;2023-08-12T09:50:36;2.05;;;1.85;;
35084;SDS011;21267;51.032;6.998;2023-08-12T09:53:03;2.85;;;1.85;;
35084;SDS011;21267;51.032;6.998;2023-08-12T09:55:30;37.97;;;31.40;;
35084;SDS011;21267;51.032;6.998;2023-08-12T09:58:01;10.65;;;7.70;;
35084;SDS011;21267;51.032;6.998;2023-08-12T10:00:32;5.47;;;4.85;;
35084;SDS011;21267;51.032;6.998;2023-08-12T10:03:00;15.00;;;13.43;;
35084;SDS011;21267;51.032;6.998;2023-08-12T10:05:28;2.38;;;2.15;;
35084;SDS011;21267;51.032;6.998;2023-08-12T10:07:57;2.72;;;2.10;;
35084;SDS011;21267;51.032;6.998;2023-08-12T10:12:51;2.63;;;2.00;;
35084;SDS011;21267;51.032;6.998;2023-08-12T10:15:18;1.73;;;1.60;;
35084;SDS011;21267;51.032;6.998;2023-08-12T10:17:46;2.22;;;1.90;;
35084;SDS011;21267;51.032;6.998;2023-08-12T10:20:22;2.53;;;1.92;;
35084;SDS011;21267;51.032;6.998;2023-08-12T10:22:50;2.60;;;1.75;;
35084;SDS011;21267;51.032;6.998;2023-08-12T10:25:18;2.03;;;1.80;;
35084;SDS011;21267;51.032;6.998;2023-08-12T10:27:49;22.90;;;18.70;;
35084;SDS011;21267;51.032;6.998;2023-08-12T10:30:16;8.20;;;4.75;;
35084;SDS011;21267;51.032;6.998;2023-08-12T10:32:43;4.65;;;2.47;;
35084;SDS011;21267;51.032;6.998;2023-08-12T10:35:12;2.60;;;2.00;;
35084;SDS011;21267;51.032;6.998;2023-08-12T10:37:39;3.25;;;2.03;;
35084;SDS011;21267;51.032;6.998;2023-08-12T10:40:09;3.20;;;1.90;;
35084;SDS011;21267;51.032;6.998;2023-08-12T10:42:47;5.20;;;2.10;;
35084;SDS011;21267;51.032;6.998;2023-08-12T10:45:16;4.25;;;2.03;;
35084;SDS011;21267;51.032;6.998;2023-08-12T10:47:48;4.28;;;2.60;;
35084;SDS011;21267;51.032;6.998;2023-08-12T10:50:19;3.08;;;2.70;;
35084;SDS011;21267;51.032;6.998;2023-08-12T10:52:47;3.05;;;2.60;;
35084;SDS011;21267;51.032;6.998;2023-08-12T10:57:48;11.05;;;7.38;;
35084;SDS011;21267;51.032;6.998;2023-08-12T11:00:24;49.70;;;39.75;;
35084;SDS011;21267;51.032;6.998;2023-08-12T11:02:53;6.15;;;4.20;;
35084;SDS011;21267;51.032;6.998;2023-08-12T11:05:21;11.48;;;8.73;;
35084;SDS011;21267;51.032;6.998;2023-08-12T11:10:23;4.25;;;3.60;;
35084;SDS011;21267;51.032;6.998;2023-08-12T11:15:19;13.23;;;11.90;;
35084;SDS011;21267;51.032;6.998;2023-08-12T11:17:55;15.43;;;13.07;;
35084;SDS011;21267;51.032;6.998;2023-08-12T11:20:22;12.47;;;7.80;;
35084;SDS011;21267;51.032;6.998;2023-08-12T11:22:49;21.40;;;16.50;;
35084;SDS011;21267;51.032;6.998;2023-08-12T11:25:16;5.05;;;3.95;;
35084;SDS011;21267;51.032;6.998;2023-08-12T11:27:47;9.63;;;6.15;;
35084;SDS011;21267;51.032;6.998;2023-08-12T11:30:15;5.93;;;4.95;;
35084;SDS011;21267;51.032;6.998;2023-08-12T11:32:47;6.22;;;5.18;;
35084;SDS011;21267;51.032;6.998;2023-08-12T11:35:16;6.18;;;5.22;;
35084;SDS011;21267;51.032;6.998;2023-08-12T11:37:45;5.55;;;3.97;;
35084;SDS011;21267;51.032;6.998;2023-08-12T11:40:14;4.90;;;3.53;;
35084;SDS011;21267;51.032;6.998;2023-08-12T11:42:43;5.03;;;3.95;;
35084;SDS011;21267;51.032;6.998;2023-08-12T11:45:15;7.38;;;4.20;;
35084;SDS011;21267;51.032;6.998;2023-08-12T11:47:43;5.22;;;3.97;;
35084;SDS011;21267;51.032;6.998;2023-08-12T11:52:38;7.63;;;5.45;;
35084;SDS011;21267;51.032;6.998;2023-08-12T11:55:06;2.47;;;2.17;;
35084;SDS011;21267;51.032;6.998;2023-08-12T12:00:01;1.80;;;1.65;;
35084;SDS011;21267;51.032;6.998;2023-08-12T12:02:37;4.80;;;2.75;;
35084;SDS011;21267;51.032;6.998;2023-08-12T12:05:12;13.15;;;11.85;;
35084;SDS011;21267;51.032;6.998;2023-08-12T12:07:40;2.90;;;2.35;;
35084;SDS011;21267;51.032;6.998;2023-08-12T12:10:07;3.67;;;1.65;;
35084;SDS011;21267;51.032;6.998;2023-08-12T12:12:35;2.17;;;1.73;;
35084;SDS011;21267;51.032;6.998;2023-08-12T12:15:03;2.05;;;1.23;;
35084;SDS011;21267;51.032;6.998;2023-08-12T12:17:31;3.03;;;1.35;;
35084;SDS011;21267;51.032;6.998;2023-08-12T12:20:00;8.73;;;5.45;;
35084;SDS011;21267;51.032;6.998;2023-08-12T12:22:31;1.88;;;1.67;;
35084;SDS011;21267;51.032;6.998;2023-08-12T12:25:08;3.10;;;1.48;;
35084;SDS011;21267;51.032;6.998;2023-08-12T12:27:36;2.58;;;1.17;;
35084;SDS011;21267;51.032;6.998;2023-08-12T12:30:05;2.08;;;1.30;;
35084;SDS011;21267;51.032;6.998;2023-08-12T12:32:42;1.50;;;1.40;;
35084;SDS011;21267;51.032;6.998;2023-08-12T12:35:10;1.88;;;1.40;;
35084;SDS011;21267;51.032;6.998;2023-08-12T12:37:37;1.40;;;1.30;;
35084;SDS011;21267;51.032;6.998;2023-08-12T12:42:31;2.25;;;1.27;;
35084;SDS011;21267;51.032;6.998;2023-08-12T12:44:59;2.05;;;1.25;;
35084;SDS011;21267;51.032;6.998;2023-08-12T12:47:25;3.08;;;1.30;;
35084;SDS011;21267;51.032;6.998;2023-08-12T12:49:53;2.05;;;1.10;;
35084;SDS011;21267;51.032;6.998;2023-08-12T12:52:19;2.13;;;1.27;;
35084;SDS011;21267;51.032;6.998;2023-08-12T12:54:46;2.30;;;1.17;;
35084;SDS011;21267;51.032;6.998;2023-08-12T12:57:13;1.10;;;1.05;;
35084;SDS011;21267;51.032;6.998;2023-08-12T12:59:40;2.17;;;1.08;;
35084;SDS011;21267;51.032;6.998;2023-08-12T13:02:07;2.25;;;1.33;;
35084;SDS011;21267;51.032;6.998;2023-08-12T13:04:34;2.58;;;1.33;;
35084;SDS011;21267;51.032;6.998;2023-08-12T13:07:01;1.25;;;0.98;;
35084;SDS011;21267;51.032;6.998;2023-08-12T13:09:28;2.75;;;1.17;;
35084;SDS011;21267;51.032;6.998;2023-08-12T13:11:54;0.88;;;0.75;;
35084;SDS011;21267;51.032;6.998;2023-08-12T13:14:23;1.45;;;0.80;;
35084;SDS011;21267;51.032;6.998;2023-08-12T13:16:50;1.63;;;0.65;;
35084;SDS011;21267;51.032;6.998;2023-08-12T13:19:18;1.70;;;0.73;;
35084;SDS011;21267;51.032;6.998;2023-08-12T13:21:44;1.05;;;0.70;;
35084;SDS011;21267;51.032;6.998;2023-08-12T13:24:11;2.28;;;0.70;;
35084;SDS011;21267;51.032;6.998;2023-08-12T13:26:38;1.08;;;0.80;;
35084;SDS011;21267;51.032;6.998;2023-08-12T13:29:05;2.50;;;1.77;;
35084;SDS011;21267;51.032;6.998;2023-08-12T13:31:32;1.42;;;1.08;;
35084;SDS011;21267;51.032;6.998;2023-08-12T13:33:59;2.58;;;1.20;;
35084;SDS011;21267;51.032;6.998;2023-08-12T13:36:26;1.17;;;1.00;;
35084;SDS011;21267;51.032;6.998;2023-08-12T13:38:53;2.80;;;1.73;;
35084;SDS011;21267;51.032;6.998;2023-08-12T13:41:20;3.72;;;1.52;;
35084;SDS011;21267;51.032;6.998;2023-08-12T13:43:47;2.35;;;1.35;;
35084;SDS011;21267;51.032;6.998;2023-08-12T13:46:14;1.15;;;1.05;;
35084;SDS011;21267;51.032;6.998;2023-08-12T13:48:41;1.65;;;0.80;;
35084;SDS011;21267;51.032;6.998;2023-08-12T13:51:08;0.93;;;0.93;;
35084;SDS011;21267;51.032;6.998;2023-08-12T13:53:35;1.45;;;1.33;;
35084;SDS011;21267;51.032;6.998;2023-08-12T13:56:02;1.10;;;1.00;;
35084;SDS011;21267;51.032;6.998;2023-08-12T13:58:30;1.50;;;1.25;;
35084;SDS011;21267;51.032;6.998;2023-08-12T14:00:57;0.85;;;0.70;;
35084;SDS011;21267;51.032;6.998;2023-08-12T14:03:24;1.40;;;1.30;;
35084;SDS011;21267;51.032;6.998;2023-08-12T14:05:51;2.15;;;1.88;;
35084;SDS011;21267;51.032;6.998;2023-08-12T14:08:18;1.45;;;1.33;;
35084;SDS011;21267;51.032;6.998;2023-08-12T14:10:47;2.00;;;1.50;;
35084;SDS011;21267;51.032;6.998;2023-08-12T14:13:16;1.55;;;0.90;;
35084;SDS011;21267;51.032;6.998;2023-08-12T14:15:43;1.80;;;0.80;;
35084;SDS011;21267;51.032;6.998;2023-08-12T14:18:10;1.00;;;0.80;;
35084;SDS011;21267;51.032;6.998;2023-08-12T14:20:40;1.25;;;1.15;;
35084;SDS011;21267;51.032;6.998;2023-08-12T14:23:07;1.13;;;1.02;;
35084;SDS011;21267;51.032;6.998;2023-08-12T14:25:35;2.35;;;1.90;;
35084;SDS011;21267;51.032;6.998;2023-08-12T14:28:02;1.13;;;1.00;;
35084;SDS011;21267;51.032;6.998;2023-08-12T14:30:29;1.42;;;1.33;;
35084;SDS011;21267;51.032;6.998;2023-08-12T14:32:56;0.68;;;0.68;;
35084;SDS011;21267;51.032;6.998;2023-08-12T14:37:51;1.17;;;0.40;;
35084;SDS011;21267;51.032;6.998;2023-08-12T14:40:17;0.55;;;0.55;;
35084;SDS011;21267;51.032;6.998;2023-08-12T14:42:44;0.82;;;0.63;;
35084;SDS011;21267;51.032;6.998;2023-08-12T14:45:11;0.75;;;0.52;;
35084;SDS011;21267;51.032;6.998;2023-08-12T14:47:38;9.27;;;8.32;;
35084;SDS011;21267;51.032;6.998;2023-08-12T14:50:05;0.40;;;0.40;;
35084;SDS011;21267;51.032;6.998;2023-08-12T14:54:59;1.48;;;0.65;;
35084;SDS011;21267;51.032;6.998;2023-08-12T14:57:26;0.47;;;0.40;;
35084;SDS011;21267;51.032;6.998;2023-08-12T14:59:53;0.65;;;0.47;;
35084;SDS011;21267;51.032;6.998;2023-08-12T15:02:20;0.45;;;0.45;;
35084;SDS011;21267;51.032;6.998;2023-08-12T15:04:51;1.05;;;0.40;;
35084;SDS011;21267;51.032;6.998;2023-08-12T15:07:18;1.38;;;0.32;;
35084;SDS011;21267;51.032;6.998;2023-08-12T15:09:46;1.70;;;0.90;;
35084;SDS011;21267;51.032;6.998;2023-08-12T15:12:13;1.15;;;0.80;;
35084;SDS011;21267;51.032;6.998;2023-08-12T15:14:40;2.58;;;1.30;;
35084;SDS011;21267;51.032;6.998;2023-08-12T15:17:07;1.13;;;0.82;;
35084;SDS011;21267;51.032;6.998;2023-08-12T15:19:33;1.33;;;0.77;;
35084;SDS011;21267;51.032;6.998;2023-08-12T15:22:00;1.27;;;0.70;;